Time;durP1;ratioP1;P1;durP2;ratioP2;P2;SDS_P1;SDS_P2;PMS_P1;PMS_P2;Temp;Humidity;BMP_temperature;BMP_pressure;BME280_temperature;BME280_humidity;BME280_pressure;Samples;Min_cycle;Max_cycle;Signal;HPM_P1;HPM_P2
2021/05/19 00:01:46;;;;;;;10.43;7.85;;;;;;;;;;5091465;28;20017;-68
2021/05/19 00:04:11;;;;;;;10.23;7.53;;;;;;;;;;5092757;28;20065;-68
2021/05/19 00:06:37;;;;;;;11.35;8.30;;;;;;;;;;5095177;28;20392;-69
2021/05/19 00:09:07;;;;;;;9.45;6.72;;;;;;;;;;5093912;28;20023;-69
2021/05/19 00:11:33;;;;;;;8.02;6.85;;;;;;;;;;5095277;28;20027;-69
2021/05/19 00:13:59;;;;;;;10.23;7.43;;;;;;;;;;5095191;28;20036;-69
2021/05/19 00:16:24;;;;;;;8.55;7.28;;;;;;;;;;5094771;28;20062;-69
2021/05/19 00:18:50;;;;;;;8.13;6.78;;;;;;;;;;5093623;28;20024;-69
2021/05/19 00:21:16;;;;;;;8.15;6.93;;;;;;;;;;5094712;28;20097;-70
2021/05/19 00:23:41;;;;;;;9.32;7.65;;;;;;;;;;5094778;28;20016;-70
2021/05/19 00:26:06;;;;;;;9.63;7.22;;;;;;;;;;5094722;28;20531;-69
2021/05/19 00:28:32;;;;;;;11.23;7.78;;;;;;;;;;5094801;28;20373;-69
2021/05/19 00:31:01;;;;;;;11.77;8.63;;;;;;;;;;5094590;28;20024;-69
2021/05/19 00:33:26;;;;;;;11.85;8.27;;;;;;;;;;5094472;28;20032;-69
2021/05/19 00:35:54;;;;;;;10.32;8.32;;;;;;;;;;5094547;28;20046;-69
2021/05/19 00:38:19;;;;;;;9.32;7.25;;;;;;;;;;5094446;28;20024;-70
2021/05/19 00:40:45;;;;;;;9.73;8.00;;;;;;;;;;5094400;28;20012;-70
2021/05/19 00:43:10;;;;;;;9.32;7.22;;;;;;;;;;5094522;28;20429;-69
2021/05/19 00:45:36;;;;;;;11.40;8.18;;;;;;;;;;5093065;28;20387;-63
2021/05/19 00:48:02;;;;;;;11.02;7.80;;;;;;;;;;5093032;28;20099;-63
2021/05/19 00:50:29;;;;;;;14.10;9.60;;;;;;;;;;5093092;28;20020;-63
2021/05/19 00:52:55;;;;;;;14.13;9.45;;;;;;;;;;5093833;28;20028;-63
2021/05/19 00:55:21;;;;;;;14.38;10.10;;;;;;;;;;5093068;28;20039;-63
2021/05/19 00:57:49;;;;;;;17.27;12.20;;;;;;;;;;5091599;28;20070;-65
2021/05/19 01:00:16;;;;;;;17.17;11.77;;;;;;;;;;5094276;28;20022;-65
2021/05/19 01:02:51;;;;;;;19.58;12.30;;;;;;;;;;5088075;28;20016;-66
2021/05/19 01:05:33;;;;;;;14.68;10.23;;;;;;;;;;5092965;28;20531;-65
2021/05/19 01:10:49;;;;;;;9.75;6.70;;;;;;;;;;5091801;28;20028;-64
2021/05/19 01:13:15;;;;;;;8.60;6.20;;;;;;;;;;5093853;28;20362;-64
2021/05/19 01:15:41;;;;;;;8.20;6.47;;;;;;;;;;5093408;28;20381;-64
2021/05/19 01:18:06;;;;;;;11.70;8.32;;;;;;;;;;5093375;28;20027;-64
2021/05/19 01:20:33;;;;;;;16.10;10.02;;;;;;;;;;5093441;28;20035;-64
2021/05/19 01:22:59;;;;;;;14.82;9.77;;;;;;;;;;5093513;28;20024;-63
2021/05/19 01:25:24;;;;;;;12.85;9.25;;;;;;;;;;5093402;28;20044;-62
2021/05/19 01:27:51;;;;;;;11.63;8.30;;;;;;;;;;5092391;28;20101;-63
2021/05/19 01:30:18;;;;;;;11.63;8.10;;;;;;;;;;5092340;28;20036;-63
2021/05/19 01:32:43;;;;;;;10.15;7.93;;;;;;;;;;5093340;28;20024;-63
2021/05/19 01:35:09;;;;;;;11.07;7.50;;;;;;;;;;5092916;28;20047;-64
2021/05/19 01:37:37;;;;;;;9.00;7.15;;;;;;;;;;5093522;28;20081;-64
2021/05/19 01:40:04;;;;;;;10.45;7.35;;;;;;;;;;5093594;28;20099;-64
2021/05/19 01:42:30;;;;;;;12.68;7.28;;;;;;;;;;5092058;28;20012;-64
2021/05/19 01:45:11;;;;;;;10.88;7.05;;;;;;;;;;5092395;28;20032;-63
2021/05/19 01:47:45;;;;;;;10.27;7.63;;;;;;;;;;5093393;28;20040;-63
2021/05/19 01:50:12;;;;;;;10.55;7.35;;;;;;;;;;5090943;28;20043;-63
2021/05/19 01:52:37;;;;;;;9.45;6.35;;;;;;;;;;5093179;28;20024;-63
2021/05/19 01:55:06;;;;;;;7.85;5.47;;;;;;;;;;5093098;28;20042;-63
2021/05/19 01:57:33;;;;;;;9.70;6.13;;;;;;;;;;5091535;28;20017;-65
2021/05/19 01:59:59;;;;;;;9.52;6.32;;;;;;;;;;5091913;28;20439;-65
2021/05/19 02:02:25;;;;;;;8.32;6.20;;;;;;;;;;5091875;28;20073;-64
2021/05/19 02:04:51;;;;;;;9.65;7.25;;;;;;;;;;5093092;28;20032;-65
2021/05/19 02:07:17;;;;;;;10.27;7.45;;;;;;;;;;5093005;28;20028;-63
2021/05/19 02:09:48;;;;;;;7.57;6.28;;;;;;;;;;5089204;28;20504;-68
2021/05/19 02:12:17;;;;;;;7.80;5.90;;;;;;;;;;5092811;28;20493;-69
2021/05/19 02:14:45;;;;;;;6.55;5.78;;;;;;;;;;5091473;28;20107;-68
2021/05/19 02:17:11;;;;;;;7.15;5.82;;;;;;;;;;5091486;28;20588;-68
2021/05/19 02:19:36;;;;;;;8.25;6.00;;;;;;;;;;5092581;28;20032;-68
2021/05/19 02:22:05;;;;;;;9.45;6.90;;;;;;;;;;5091442;28;20035;-70
2021/05/19 02:24:40;;;;;;;14.95;9.20;;;;;;;;;;5091407;28;20358;-70
2021/05/19 02:27:06;;;;;;;10.93;7.80;;;;;;;;;;5090677;28;20024;-70
2021/05/19 02:29:35;;;;;;;11.73;8.30;;;;;;;;;;5091358;28;20466;-69
2021/05/19 02:32:01;;;;;;;10.43;8.07;;;;;;;;;;5091297;28;20081;-69
2021/05/19 02:34:26;;;;;;;13.65;8.27;;;;;;;;;;5074170;28;20032;-69
2021/05/19 02:36:53;;;;;;;10.20;6.97;;;;;;;;;;5091299;28;20016;-69
2021/05/19 02:39:19;;;;;;;14.48;8.05;;;;;;;;;;5091409;28;20042;-70
2021/05/19 02:41:47;;;;;;;7.43;6.45;;;;;;;;;;5088328;28;20493;-70
2021/05/19 02:44:15;;;;;;;9.65;6.93;;;;;;;;;;5091145;28;20097;-70
2021/05/19 02:46:41;;;;;;;9.10;6.63;;;;;;;;;;5092396;28;20048;-69
2021/05/19 02:49:06;;;;;;;10.32;7.13;;;;;;;;;;5092138;28;20024;-69
2021/05/19 02:51:33;;;;;;;7.28;6.18;;;;;;;;;;5092276;28;20081;-69
2021/05/19 02:53:58;;;;;;;11.27;6.50;;;;;;;;;;5092372;28;20081;-69
2021/05/19 02:56:24;;;;;;;10.70;6.50;;;;;;;;;;5092082;28;20393;-68
2021/05/19 02:58:50;;;;;;;8.48;6.55;;;;;;;;;;5092134;28;20047;-69
2021/05/19 03:01:16;;;;;;;10.13;6.13;;;;;;;;;;5092218;28;20043;-68
2021/05/19 03:03:43;;;;;;;11.20;6.90;;;;;;;;;;5091883;28;20027;-68
2021/05/19 03:06:08;;;;;;;13.57;8.38;;;;;;;;;;5089388;28;20012;-68
2021/05/19 03:08:34;;;;;;;11.00;6.68;;;;;;;;;;5092090;28;20676;-69
2021/05/19 03:10:59;;;;;;;7.85;6.10;;;;;;;;;;5092134;28;20035;-70
2021/05/19 03:13:25;;;;;;;6.57;5.97;;;;;;;;;;5090848;28;20591;-70
2021/05/19 03:15:51;;;;;;;6.88;6.15;;;;;;;;;;5091891;28;20024;-69
2021/05/19 03:18:16;;;;;;;6.70;6.00;;;;;;;;;;5091976;28;20020;-69
2021/05/19 03:20:41;;;;;;;7.30;6.32;;;;;;;;;;5091971;28;20024;-69
2021/05/19 03:23:07;;;;;;;5.93;5.32;;;;;;;;;;5092043;28;20506;-69
2021/05/19 03:25:32;;;;;;;8.40;5.93;;;;;;;;;;5091969;28;20016;-68
2021/05/19 03:27:58;;;;;;;6.60;5.80;;;;;;;;;;5091709;28;20150;-69
2021/05/19 03:30:23;;;;;;;7.30;6.40;;;;;;;;;;5091612;28;20024;-69
2021/05/19 03:32:49;;;;;;;8.20;7.32;;;;;;;;;;5091900;28;20119;-64
2021/05/19 03:35:16;;;;;;;8.90;7.43;;;;;;;;;;5090349;28;20047;-64
2021/05/19 03:37:41;;;;;;;7.07;6.40;;;;;;;;;;5093437;28;20055;-69
2021/05/19 03:40:08;;;;;;;8.55;7.45;;;;;;;;;;5095826;28;20498;-69
2021/05/19 03:42:34;;;;;;;6.57;5.97;;;;;;;;;;5094327;28;20042;-69
2021/05/19 03:45:00;;;;;;;6.72;6.13;;;;;;;;;;5095748;28;20051;-69
2021/05/19 03:47:26;;;;;;;6.65;6.00;;;;;;;;;;5095770;28;20484;-69
2021/05/19 03:49:51;;;;;;;6.85;6.20;;;;;;;;;;5095548;28;20024;-69
2021/05/19 03:52:17;;;;;;;6.55;5.95;;;;;;;;;;5095423;28;20024;-70
2021/05/19 03:54:44;;;;;;;7.30;6.65;;;;;;;;;;5095427;28;20053;-69
2021/05/19 03:57:10;;;;;;;6.55;5.97;;;;;;;;;;5092541;28;20039;-69
2021/05/19 03:59:36;;;;;;;7.88;6.88;;;;;;;;;;5095132;28;20501;-70
2021/05/19 04:02:01;;;;;;;6.97;6.38;;;;;;;;;;5095150;28;20021;-70
2021/05/19 04:04:27;;;;;;;6.03;5.57;;;;;;;;;;5095234;28;20032;-70
2021/05/19 04:06:52;;;;;;;6.50;5.90;;;;;;;;;;5095168;28;20012;-70
2021/05/19 04:09:18;;;;;;;5.93;5.43;;;;;;;;;;5095181;28;20031;-69
2021/05/19 04:11:44;;;;;;;5.47;5.07;;;;;;;;;;5095067;28;20024;-70
2021/05/19 04:14:09;;;;;;;4.82;4.53;;;;;;;;;;5095077;28;20032;-63
2021/05/19 04:16:35;;;;;;;5.57;4.97;;;;;;;;;;5094897;28;20420;-64
2021/05/19 04:19:02;;;;;;;5.63;5.15;;;;;;;;;;5094828;28;20538;-63
2021/05/19 04:21:28;;;;;;;6.03;5.60;;;;;;;;;;5094893;28;20068;-63
2021/05/19 04:23:54;;;;;;;5.57;5.07;;;;;;;;;;5094800;28;20020;-63
2021/05/19 04:26:19;;;;;;;5.63;5.22;;;;;;;;;;5095043;28;20019;-63
2021/05/19 04:28:45;;;;;;;6.07;5.65;;;;;;;;;;5093747;28;20035;-63
2021/05/19 04:31:10;;;;;;;6.50;5.90;;;;;;;;;;5095027;28;20042;-63
2021/05/19 04:33:36;;;;;;;6.03;5.53;;;;;;;;;;5094758;28;20090;-62
2021/05/19 04:36:02;;;;;;;6.82;6.13;;;;;;;;;;5094066;28;20413;-67
2021/05/19 04:38:28;;;;;;;5.78;5.28;;;;;;;;;;5094329;28;20032;-67
2021/05/19 04:40:53;;;;;;;6.20;5.60;;;;;;;;;;5094270;28;20019;-68
2021/05/19 04:43:19;;;;;;;5.95;5.45;;;;;;;;;;5095924;28;20019;-68
2021/05/19 04:45:44;;;;;;;5.70;5.20;;;;;;;;;;5095360;28;20012;-68
2021/05/19 04:48:11;;;;;;;6.10;5.53;;;;;;;;;;5095600;28;20028;-67
2021/05/19 04:50:38;;;;;;;7.03;6.35;;;;;;;;;;5095045;28;20028;-68
2021/05/19 04:53:05;;;;;;;6.03;4.93;;;;;;;;;;5095174;28;20037;-68
2021/05/19 04:55:31;;;;;;;6.57;5.97;;;;;;;;;;5095131;28;20353;-68
2021/05/19 04:58:00;;;;;;;6.22;5.63;;;;;;;;;;5094956;28;20024;-68
2021/05/19 05:00:25;;;;;;;6.22;5.65;;;;;;;;;;5095008;28;20083;-68
2021/05/19 05:02:51;;;;;;;5.97;5.43;;;;;;;;;;5094965;28;20102;-68
2021/05/19 05:05:17;;;;;;;5.53;5.07;;;;;;;;;;5095054;28;20061;-68
2021/05/19 05:07:42;;;;;;;5.88;5.38;;;;;;;;;;5095370;28;20032;-68
2021/05/19 05:10:09;;;;;;;5.70;5.22;;;;;;;;;;5095500;28;20466;-68
2021/05/19 05:12:35;;;;;;;6.05;5.50;;;;;;;;;;5094627;28;20016;-68
2021/05/19 05:15:00;;;;;;;5.35;4.68;;;;;;;;;;5094660;28;20012;-69
2021/05/19 05:17:26;;;;;;;5.07;4.68;;;;;;;;;;5094733;28;20387;-69
2021/05/19 05:19:51;;;;;;;5.82;5.25;;;;;;;;;;5094870;28;20475;-70
2021/05/19 05:22:17;;;;;;;5.25;4.80;;;;;;;;;;5094957;28;20032;-70
2021/05/19 05:24:42;;;;;;;5.63;5.13;;;;;;;;;;5094512;28;20020;-70
2021/05/19 05:27:08;;;;;;;5.38;4.97;;;;;;;;;;5094728;28;20039;-70
2021/05/19 05:29:34;;;;;;;6.82;5.63;;;;;;;;;;5095234;28;20095;-69
2021/05/19 05:31:59;;;;;;;5.50;5.10;;;;;;;;;;5094272;28;20032;-70
2021/05/19 05:34:25;;;;;;;5.68;4.72;;;;;;;;;;5093315;28;20706;-70
2021/05/19 05:36:50;;;;;;;5.20;4.72;;;;;;;;;;5094237;28;20023;-69
2021/05/19 05:39:16;;;;;;;5.38;4.88;;;;;;;;;;5094861;28;20097;-69
2021/05/19 05:41:41;;;;;;;6.47;5.88;;;;;;;;;;5094820;28;20024;-69
2021/05/19 05:44:07;;;;;;;6.03;5.43;;;;;;;;;;5094654;28;20047;-70
2021/05/19 05:46:33;;;;;;;5.53;5.03;;;;;;;;;;5094453;28;20028;-69
2021/05/19 05:48:59;;;;;;;6.00;5.50;;;;;;;;;;5094676;28;20520;-69
2021/05/19 05:51:25;;;;;;;5.97;5.53;;;;;;;;;;5094616;28;20060;-69
2021/05/19 05:53:51;;;;;;;5.57;5.03;;;;;;;;;;5094457;28;20052;-69
2021/05/19 05:56:17;;;;;;;5.45;4.95;;;;;;;;;;5094412;28;20028;-68
2021/05/19 05:58:42;;;;;;;6.30;5.70;;;;;;;;;;5094138;28;20023;-68
2021/05/19 06:01:09;;;;;;;5.40;4.88;;;;;;;;;;5093266;28;20024;-69
2021/05/19 06:03:35;;;;;;;6.32;5.60;;;;;;;;;;5094511;28;20103;-69
2021/05/19 06:06:01;;;;;;;6.03;5.32;;;;;;;;;;5092867;28;20497;-69
2021/05/19 06:08:27;;;;;;;5.45;4.97;;;;;;;;;;5094253;28;20023;-64
2021/05/19 06:10:52;;;;;;;6.97;6.28;;;;;;;;;;5092850;28;20393;-63
2021/05/19 06:13:18;;;;;;;5.38;4.88;;;;;;;;;;5094303;28;20023;-63
2021/05/19 06:15:43;;;;;;;5.25;4.65;;;;;;;;;;5093988;28;20066;-63
2021/05/19 06:18:09;;;;;;;4.38;3.97;;;;;;;;;;5093993;28;20034;-63
2021/05/19 06:20:34;;;;;;;4.13;3.75;;;;;;;;;;5094095;28;20416;-63
2021/05/19 06:23:00;;;;;;;7.47;5.75;;;;;;;;;;5093855;28;20454;-63
2021/05/19 06:25:26;;;;;;;5.47;5.03;;;;;;;;;;5094148;28;20024;-63
2021/05/19 06:27:51;;;;;;;5.82;5.25;;;;;;;;;;5093623;28;20036;-63
2021/05/19 06:30:18;;;;;;;3.83;3.17;;;;;;;;;;5093890;28;20036;-63
2021/05/19 06:32:44;;;;;;;4.63;4.13;;;;;;;;;;5093888;28;20058;-63
2021/05/19 06:35:10;;;;;;;3.60;3.30;;;;;;;;;;5093438;28;20072;-63
2021/05/19 06:37:35;;;;;;;5.47;4.97;;;;;;;;;;5093895;28;20035;-63
2021/05/19 06:40:01;;;;;;;5.47;4.97;;;;;;;;;;5092467;28;20024;-63
2021/05/19 06:42:27;;;;;;;4.47;4.07;;;;;;;;;;5093596;28;20017;-63
2021/05/19 06:44:52;;;;;;;3.72;3.42;;;;;;;;;;5093537;28;20024;-63
2021/05/19 06:47:21;;;;;;;5.35;4.95;;;;;;;;;;5093540;28;20047;-63
2021/05/19 06:49:46;;;;;;;4.18;3.83;;;;;;;;;;5093610;28;20032;-64
2021/05/19 06:52:12;;;;;;;4.10;3.80;;;;;;;;;;5093736;28;20024;-63
2021/05/19 06:54:37;;;;;;;5.35;4.88;;;;;;;;;;5093539;28;20028;-63
2021/05/19 06:57:03;;;;;;;3.58;3.28;;;;;;;;;;5093430;28;20008;-63
2021/05/19 06:59:28;;;;;;;3.17;2.97;;;;;;;;;;5093500;28;20028;-63
2021/05/19 07:01:54;;;;;;;3.17;2.90;;;;;;;;;;5092267;28;20020;-63
2021/05/19 07:04:20;;;;;;;3.45;3.17;;;;;;;;;;5093342;28;20032;-63
2021/05/19 07:06:46;;;;;;;3.05;2.85;;;;;;;;;;5093577;28;20020;-63
2021/05/19 07:09:12;;;;;;;3.30;3.00;;;;;;;;;;5092210;28;20036;-63
2021/05/19 07:11:37;;;;;;;3.38;3.17;;;;;;;;;;5093342;28;20032;-63
2021/05/19 07:14:05;;;;;;;3.55;3.35;;;;;;;;;;5097732;28;20119;-63
2021/05/19 07:16:33;;;;;;;3.10;2.88;;;;;;;;;;5097609;28;20073;-68
2021/05/19 07:18:58;;;;;;;3.15;2.95;;;;;;;;;;5095720;28;20036;-64
2021/05/19 07:21:24;;;;;;;3.38;3.08;;;;;;;;;;5097539;28;20039;-63
2021/05/19 07:23:52;;;;;;;4.32;3.80;;;;;;;;;;5097363;28;20028;-63
2021/05/19 07:26:20;;;;;;;4.20;3.90;;;;;;;;;;5097789;28;20020;-63
2021/05/19 07:28:45;;;;;;;2.60;2.40;;;;;;;;;;5097019;28;20043;-63
2021/05/19 07:31:11;;;;;;;4.60;4.20;;;;;;;;;;5097172;28;20020;-62
2021/05/19 07:33:36;;;;;;;4.65;4.25;;;;;;;;;;5097017;28;20032;-62
2021/05/19 07:36:02;;;;;;;4.00;3.70;;;;;;;;;;5096865;28;20052;-62
2021/05/19 07:38:28;;;;;;;4.35;3.95;;;;;;;;;;5096713;28;20060;-62
2021/05/19 07:40:53;;;;;;;2.80;2.63;;;;;;;;;;5095928;28;20454;-62
2021/05/19 07:43:19;;;;;;;3.53;2.85;;;;;;;;;;5097012;28;20509;-62
2021/05/19 07:45:44;;;;;;;2.38;2.17;;;;;;;;;;5096010;28;20050;-62
2021/05/19 07:48:10;;;;;;;3.17;2.97;;;;;;;;;;5097039;28;20026;-62
2021/05/19 07:50:36;;;;;;;3.50;3.30;;;;;;;;;;5096888;28;20028;-62
2021/05/19 07:53:02;;;;;;;2.67;2.38;;;;;;;;;;5096592;28;20043;-62
2021/05/19 07:55:29;;;;;;;3.15;2.95;;;;;;;;;;5096545;28;20020;-62
2021/05/19 07:58:03;;;;;;;2.97;2.78;;;;;;;;;;5096703;28;20032;-62
2021/05/19 08:03:04;;;;;;;3.15;2.95;;;;;;;;;;5096688;28;20025;-62
2021/05/19 08:05:29;;;;;;;2.33;2.22;;;;;;;;;;5096436;28;20023;-62
2021/05/19 08:07:55;;;;;;;3.05;2.85;;;;;;;;;;5096435;28;20390;-62
2021/05/19 08:10:21;;;;;;;2.20;2.10;;;;;;;;;;5094909;28;20034;-62
2021/05/19 08:12:47;;;;;;;2.70;2.50;;;;;;;;;;5096318;28;20036;-62
2021/05/19 08:15:12;;;;;;;2.85;1.98;;;;;;;;;;5095928;28;20024;-62
2021/05/19 08:17:38;;;;;;;2.22;2.13;;;;;;;;;;5096028;28;20034;-62
2021/05/19 08:20:04;;;;;;;2.22;2.13;;;;;;;;;;5096119;28;20038;-62
2021/05/19 08:22:30;;;;;;;2.45;2.35;;;;;;;;;;5095945;28;20374;-62
2021/05/19 08:24:55;;;;;;;2.35;2.15;;;;;;;;;;5094876;28;20028;-62
2021/05/19 08:27:21;;;;;;;4.00;3.72;;;;;;;;;;5096072;28;20024;-63
2021/05/19 08:29:47;;;;;;;3.75;3.47;;;;;;;;;;5096242;28;20016;-62
2021/05/19 08:32:13;;;;;;;4.00;3.70;;;;;;;;;;5096030;28;20032;-62
2021/05/19 08:34:38;;;;;;;3.72;3.47;;;;;;;;;;5095647;28;20028;-62
2021/05/19 08:37:04;;;;;;;4.35;3.92;;;;;;;;;;5095938;28;20386;-62
2021/05/19 08:39:29;;;;;;;5.45;4.95;;;;;;;;;;5095803;28;20064;-62
2021/05/19 08:41:55;;;;;;;4.20;3.90;;;;;;;;;;5095794;28;20027;-62
2021/05/19 08:44:21;;;;;;;4.03;3.72;;;;;;;;;;5094776;28;20020;-62
2021/05/19 08:46:47;;;;;;;4.57;4.20;;;;;;;;;;5095924;28;20028;-62
2021/05/19 08:49:13;;;;;;;3.72;3.42;;;;;;;;;;5094326;28;20402;-62
2021/05/19 08:51:41;;;;;;;5.85;5.25;;;;;;;;;;5095525;28;20474;-64
2021/05/19 08:54:10;;;;;;;6.78;4.72;;;;;;;;;;5094612;28;20469;-68
2021/05/19 08:56:40;;;;;;;4.50;4.15;;;;;;;;;;5095488;28;20036;-72
2021/05/19 08:59:05;;;;;;;3.93;3.63;;;;;;;;;;5095402;28;20022;-71
2021/05/19 09:01:40;;;;;;;3.25;3.05;;;;;;;;;;5095424;28;20357;-69
2021/05/19 09:04:07;;;;;;;2.72;2.53;;;;;;;;;;5095430;28;20057;-66
2021/05/19 09:06:32;;;;;;;4.20;3.90;;;;;;;;;;5093744;28;20404;-65
2021/05/19 09:08:58;;;;;;;2.30;2.10;;;;;;;;;;5095083;28;20047;-64
2021/05/19 09:11:23;;;;;;;3.90;3.60;;;;;;;;;;5094094;28;20046;-62
2021/05/19 09:13:49;;;;;;;3.30;3.10;;;;;;;;;;5095202;28;20035;-62
2021/05/19 09:16:28;;;;;;;3.53;3.33;;;;;;;;;;5095303;28;20020;-62
2021/05/19 09:18:55;;;;;;;3.03;2.83;;;;;;;;;;5095148;28;20035;-59
2021/05/19 09:21:40;;;;;;;3.17;2.95;;;;;;;;;;5095156;28;20450;-59
2021/05/19 09:24:20;;;;;;;4.95;4.45;;;;;;;;;;5094614;28;20028;-58
2021/05/19 09:26:55;;;;;;;4.37;3.47;;;;;;;;;;5094237;28;20067;-59
2021/05/19 09:29:24;;;;;;;6.10;4.03;;;;;;;;;;5094903;28;20327;-58
2021/05/19 09:31:51;;;;;;;4.63;4.25;;;;;;;;;;5094772;28;20027;-58
2021/05/19 09:34:20;;;;;;;4.07;3.78;;;;;;;;;;5094146;28;20040;-59
2021/05/19 09:36:46;;;;;;;3.53;2.90;;;;;;;;;;5094279;28;20389;-59
2021/05/19 09:39:11;;;;;;;3.78;3.33;;;;;;;;;;5076254;28;20026;-59
2021/05/19 09:41:39;;;;;;;3.42;3.22;;;;;;;;;;5093077;28;20055;-59
2021/05/19 09:44:06;;;;;;;4.50;4.10;;;;;;;;;;5094905;28;20028;-59
2021/05/19 09:49:17;;;;;;;5.65;4.30;;;;;;;;;;5094246;28;20032;-59
2021/05/19 09:51:44;;;;;;;3.78;3.47;;;;;;;;;;5094432;28;20032;-59
2021/05/19 09:54:28;;;;;;;3.75;3.35;;;;;;;;;;5094394;28;20024;-59
2021/05/19 09:56:58;;;;;;;3.83;3.53;;;;;;;;;;5094314;28;20032;-59
2021/05/19 09:59:24;;;;;;;4.00;3.63;;;;;;;;;;5094261;28;20096;-59
2021/05/19 10:01:50;;;;;;;3.83;3.53;;;;;;;;;;5094310;28;20482;-59
2021/05/19 10:04:17;;;;;;;3.45;3.20;;;;;;;;;;5094060;28;20401;-59
2021/05/19 10:06:43;;;;;;;5.22;3.78;;;;;;;;;;5094291;28;20036;-59
2021/05/19 10:09:08;;;;;;;4.18;3.72;;;;;;;;;;5094025;28;20028;-59
2021/05/19 10:11:34;;;;;;;3.67;3.38;;;;;;;;;;5093813;28;20028;-59
2021/05/19 10:14:00;;;;;;;5.90;4.20;;;;;;;;;;5093624;28;20474;-59
2021/05/19 10:16:25;;;;;;;3.45;3.25;;;;;;;;;;5094068;28;20081;-60
2021/05/19 10:18:55;;;;;;;3.55;3.25;;;;;;;;;;5094077;28;20048;-60
2021/05/19 10:21:22;;;;;;;2.40;2.17;;;;;;;;;;5093792;28;20454;-60
2021/05/19 10:24:27;;;;;;;3.95;2.92;;;;;;;;;;5093787;28;20050;-60
2021/05/19 10:27:19;;;;;;;2.38;2.20;;;;;;;;;;5091803;28;20538;-60
2021/05/19 10:29:48;;;;;;;2.88;2.60;;;;;;;;;;5059695;28;20048;-60
2021/05/19 10:32:28;;;;;;;2.97;2.15;;;;;;;;;;5092581;28;20024;-60
2021/05/19 10:34:54;;;;;;;;;;;;;;;;;;5093455;28;20126;-60
2021/05/19 10:37:31;;;;;;;2.10;1.90;;;;;;;;;;5093798;28;19946;-60
2021/05/19 10:40:18;;;;;;;2.67;2.40;;;;;;;;;;5093706;28;20714;-60
2021/05/19 10:43:05;;;;;;;2.85;2.22;;;;;;;;;;5093694;28;20424;-60
2021/05/19 10:45:46;;;;;;;1.83;1.73;;;;;;;;;;5093712;28;20062;-60
2021/05/19 10:48:27;;;;;;;3.30;2.40;;;;;;;;;;5093025;28;20029;-60
2021/05/19 10:50:59;;;;;;;1.88;1.77;;;;;;;;;;5093395;28;20111;-63
2021/05/19 10:59:11;;;;;;;2.60;2.03;;;;;;;;;;5093491;28;20395;-63
2021/05/19 11:01:39;;;;;;;2.20;2.10;;;;;;;;;;5093412;28;20028;-63
2021/05/19 11:04:11;;;;;;;2.85;2.63;;;;;;;;;;5093538;28;20020;-63
2021/05/19 11:06:57;;;;;;;1.75;1.50;;;;;;;;;;5093627;28;20085;-63
2021/05/19 11:09:28;;;;;;;2.33;2.10;;;;;;;;;;5093494;28;20078;-63
2021/05/19 11:12:13;;;;;;;2.67;1.90;;;;;;;;;;5093372;28;20032;-63
2021/05/19 11:14:51;;;;;;;3.40;2.10;;;;;;;;;;5093377;28;20075;-62
2021/05/19 11:17:33;;;;;;;2.00;1.90;;;;;;;;;;5093580;28;20036;-63
2021/05/19 11:20:03;;;;;;;2.17;2.05;;;;;;;;;;5093351;28;20438;-63
2021/05/19 11:22:28;;;;;;;2.40;1.80;;;;;;;;;;5093385;28;20032;-63
2021/05/19 11:24:56;;;;;;;5.13;2.55;;;;;;;;;;5093328;28;20076;-63
2021/05/19 11:27:23;;;;;;;2.13;1.80;;;;;;;;;;5093347;28;20021;-63
2021/05/19 11:29:48;;;;;;;1.90;1.73;;;;;;;;;;5093316;28;20138;-62
2021/05/19 11:32:16;;;;;;;4.25;1.90;;;;;;;;;;5093176;28;20088;-63
2021/05/19 11:34:41;;;;;;;1.20;1.20;;;;;;;;;;5092577;28;20119;-63
2021/05/19 11:37:07;;;;;;;1.00;1.00;;;;;;;;;;5093422;28;20039;-63
2021/05/19 11:39:34;;;;;;;1.40;1.15;;;;;;;;;;5092980;28;20054;-63
2021/05/19 11:42:17;;;;;;;1.10;1.10;;;;;;;;;;5092838;28;20020;-63
2021/05/19 11:44:48;;;;;;;2.15;1.20;;;;;;;;;;5092948;28;20035;-63
2021/05/19 11:47:14;;;;;;;0.90;0.90;;;;;;;;;;5093013;28;20107;-63
2021/05/19 11:49:39;;;;;;;2.25;1.05;;;;;;;;;;5093071;28;20054;-63
2021/05/19 11:52:06;;;;;;;2.20;1.92;;;;;;;;;;5092648;28;20055;-63
2021/05/19 11:54:42;;;;;;;2.25;2.05;;;;;;;;;;5092842;28;20451;-61
2021/05/19 11:57:10;;;;;;;1.30;1.20;;;;;;;;;;5092872;28;20422;-62
2021/05/19 11:59:38;;;;;;;1.38;1.30;;;;;;;;;;5095916;28;20034;-61
2021/05/19 12:02:04;;;;;;;1.17;1.17;;;;;;;;;;5095276;28;20024;-62
2021/05/19 12:04:34;;;;;;;1.60;1.50;;;;;;;;;;5096282;28;20055;-62
2021/05/19 12:07:05;;;;;;;1.30;1.20;;;;;;;;;;5096674;28;20024;-62
2021/05/19 12:09:32;;;;;;;1.42;1.05;;;;;;;;;;5096535;28;20382;-62
2021/05/19 12:12:08;;;;;;;3.05;1.30;;;;;;;;;;5096364;28;20020;-61
2021/05/19 12:14:34;;;;;;;1.15;0.98;;;;;;;;;;5095415;28;20429;-61
2021/05/19 12:17:01;;;;;;;1.30;1.20;;;;;;;;;;5096534;28;20028;-61
2021/05/19 12:19:28;;;;;;;2.10;1.55;;;;;;;;;;5096202;28;20067;-62
2021/05/19 12:22:06;;;;;;;1.60;1.50;;;;;;;;;;5096324;28;20012;-61
2021/05/19 12:24:32;;;;;;;2.13;1.40;;;;;;;;;;5096124;28;20024;-62
2021/05/19 12:26:58;;;;;;;1.40;1.30;;;;;;;;;;5095829;28;20466;-61
2021/05/19 12:29:29;;;;;;;1.65;1.27;;;;;;;;;;5096315;28;20063;-62
2021/05/19 12:32:06;;;;;;;1.65;1.55;;;;;;;;;;5096102;28;20032;-61
2021/05/19 12:34:33;;;;;;;2.15;1.90;;;;;;;;;;5095460;28;20067;-62
2021/05/19 12:36:59;;;;;;;2.45;1.60;;;;;;;;;;5096133;28;20024;-62
2021/05/19 12:39:26;;;;;;;2.47;2.28;;;;;;;;;;5095747;28;20023;-61
2021/05/19 12:41:53;;;;;;;1.80;1.70;;;;;;;;;;5095885;28;20072;-62
2021/05/19 12:44:19;;;;;;;2.60;2.05;;;;;;;;;;5095770;28;20023;-62
2021/05/19 12:47:05;;;;;;;2.10;2.00;;;;;;;;;;5095354;28;20030;-63
2021/05/19 12:49:32;;;;;;;1.80;1.70;;;;;;;;;;5095959;28;20043;-63
2021/05/19 12:51:58;;;;;;;2.50;1.45;;;;;;;;;;5095906;28;20081;-63
2021/05/19 12:54:34;;;;;;;1.40;1.30;;;;;;;;;;5095676;28;20035;-63
2021/05/19 12:57:01;;;;;;;1.13;1.08;;;;;;;;;;5095847;28;20028;-63
2021/05/19 12:59:26;;;;;;;1.20;1.20;;;;;;;;;;5095333;28;20078;-63
2021/05/19 13:01:52;;;;;;;1.65;1.55;;;;;;;;;;5095593;28;20478;-63
2021/05/19 13:04:20;;;;;;;2.97;2.47;;;;;;;;;;5094362;28;20125;-63
2021/05/19 13:06:50;;;;;;;17.30;11.45;;;;;;;;;;5095498;28;20017;-63
2021/05/19 13:09:19;;;;;;;6.38;5.53;;;;;;;;;;5095211;28;20055;-63
2021/05/19 13:12:01;;;;;;;3.63;3.33;;;;;;;;;;5094874;28;20458;-63
2021/05/19 13:14:32;;;;;;;2.42;2.17;;;;;;;;;;5095355;28;20039;-63
2021/05/19 13:17:02;;;;;;;3.75;2.70;;;;;;;;;;5095358;28;20391;-63
2021/05/19 13:19:27;;;;;;;4.05;2.78;;;;;;;;;;5095113;28;20369;-63
2021/05/19 13:21:54;;;;;;;2.47;2.28;;;;;;;;;;5095091;28;20107;-64
2021/05/19 13:24:23;;;;;;;2.35;2.00;;;;;;;;;;5094812;28;20016;-63
2021/05/19 13:26:56;;;;;;;4.07;3.20;;;;;;;;;;5094930;28;20543;-63
2021/05/19 13:29:22;;;;;;;9.05;5.43;;;;;;;;;;5095020;28;20402;-63
2021/05/19 13:34:21;;;;;;;2.70;2.50;;;;;;;;;;5094726;28;20427;-64
2021/05/19 13:36:47;;;;;;;4.15;3.47;;;;;;;;;;5094870;28;20036;-63
2021/05/19 13:39:23;;;;;;;6.68;5.10;;;;;;;;;;5094856;28;20039;-63
2021/05/19 13:41:50;;;;;;;7.75;4.65;;;;;;;;;;5093572;28;20032;-63
2021/05/19 13:44:16;;;;;;;2.88;2.60;;;;;;;;;;5094566;28;20024;-63
2021/05/19 13:46:43;;;;;;;5.97;3.40;;;;;;;;;;5094488;28;20028;-63
2021/05/19 13:49:16;;;;;;;4.30;3.47;;;;;;;;;;5094483;28;20024;-63
2021/05/19 13:51:42;;;;;;;1.73;1.52;;;;;;;;;;5094521;28;20031;-63
2021/05/19 13:54:08;;;;;;;1.52;1.42;;;;;;;;;;5094506;28;20125;-63
2021/05/19 13:56:34;;;;;;;2.88;1.98;;;;;;;;;;5093267;28;20474;-63
2021/05/19 13:58:59;;;;;;;3.95;2.67;;;;;;;;;;5094174;28;20024;-63
2021/05/19 14:01:25;;;;;;;3.60;3.30;;;;;;;;;;5094376;28;20031;-63
2021/05/19 14:03:50;;;;;;;4.05;3.65;;;;;;;;;;5094380;28;20032;-63
2021/05/19 14:06:16;;;;;;;3.92;3.42;;;;;;;;;;5094217;28;20032;-63
2021/05/19 14:08:41;;;;;;;5.50;3.72;;;;;;;;;;5094296;28;20073;-61
2021/05/19 14:11:10;;;;;;;3.03;2.83;;;;;;;;;;5092965;28;20118;-61
2021/05/19 14:13:44;;;;;;;1.75;1.65;;;;;;;;;;5094260;28;20040;-63
2021/05/19 14:19:02;;;;;;;1.80;1.70;;;;;;;;;;5094173;28;20489;-63
2021/05/19 14:27:07;;;;;;;2.80;1.60;;;;;;;;;;5094127;28;20126;-63
2021/05/19 14:29:33;;;;;;;3.58;2.40;;;;;;;;;;5093233;28;20378;-63
2021/05/19 14:31:59;;;;;;;3.03;2.65;;;;;;;;;;5093072;28;20032;-63
2021/05/19 14:34:25;;;;;;;2.63;2.35;;;;;;;;;;5093217;28;20044;-63
2021/05/19 15:01:43;;;;;;;1.70;1.60;;;;;;;;;;5051245;28;20096;-62
2021/05/19 15:04:09;;;;;;;1.80;1.70;;;;;;;;;;5084466;28;20031;-62
2021/05/19 15:06:35;;;;;;;1.83;1.70;;;;;;;;;;5093630;28;20028;-62
2021/05/19 15:09:00;;;;;;;2.10;1.90;;;;;;;;;;5093457;28;20065;-62
2021/05/19 15:11:26;;;;;;;3.33;2.50;;;;;;;;;;5093469;28;20024;-62
2021/05/19 15:13:52;;;;;;;1.70;1.60;;;;;;;;;;5093209;28;20020;-62
2021/05/19 15:16:18;;;;;;;2.25;2.00;;;;;;;;;;5093335;28;20032;-62
2021/05/19 15:18:43;;;;;;;2.45;1.70;;;;;;;;;;5092220;28;20047;-62
2021/05/19 15:21:09;;;;;;;2.38;1.90;;;;;;;;;;5093436;28;20420;-63
2021/05/19 15:23:35;;;;;;;3.47;2.00;;;;;;;;;;5093455;28;20020;-62
2021/05/19 15:26:00;;;;;;;2.03;1.77;;;;;;;;;;5093301;28;20107;-62
2021/05/19 15:28:26;;;;;;;2.72;2.35;;;;;;;;;;5093410;28;20103;-63
2021/05/19 15:30:55;;;;;;;3.20;2.50;;;;;;;;;;5092826;28;20077;-60
2021/05/19 15:33:21;;;;;;;5.15;3.35;;;;;;;;;;5094542;28;20039;-62